createdAt,value
2023-02-11T00:01:35.255Z,1.38
2023-02-11T00:03:39.729Z,1.39
2023-02-11T00:05:42.524Z,1.37
2023-02-11T00:07:45.329Z,1.43
2023-02-11T00:09:48.096Z,1.46
2023-02-11T00:11:50.858Z,1.49
2023-02-11T00:13:53.680Z,1.53
2023-02-11T00:15:58.063Z,1.52
2023-02-11T00:18:00.811Z,1.53
2023-02-11T00:20:07.924Z,1.58
2023-02-11T00:22:11.036Z,1.61
2023-02-11T00:24:13.831Z,1.62
2023-02-11T00:26:19.143Z,1.64
2023-02-11T00:28:22.593Z,1.63
2023-02-11T00:30:25.747Z,1.63
2023-02-11T00:32:29.858Z,1.63
2023-02-11T00:34:32.935Z,1.68
2023-02-11T00:36:41.012Z,1.64
2023-02-11T00:38:44.661Z,1.64
2023-02-11T00:40:47.439Z,1.67
2023-02-11T00:42:50.242Z,1.66
2023-02-11T00:44:53.073Z,1.63
2023-02-11T00:46:55.857Z,1.64
2023-02-11T00:48:58.663Z,1.60
2023-02-11T00:51:01.485Z,1.58
2023-02-11T00:53:05.720Z,1.62
2023-02-11T00:55:09.193Z,1.61
2023-02-11T00:57:12.016Z,1.64
2023-02-11T00:59:14.860Z,1.67
2023-02-11T01:01:20.188Z,1.69
2023-02-11T01:03:23.030Z,1.70
2023-02-11T01:05:26.216Z,1.66
2023-02-11T01:07:29.474Z,1.66
2023-02-11T01:09:33.624Z,1.67
2023-02-11T01:11:36.758Z,1.68
2023-02-11T01:13:40.614Z,1.70
2023-02-11T01:15:43.406Z,1.71
2023-02-11T01:17:46.567Z,1.74
2023-02-11T01:19:49.468Z,1.74
2023-02-11T01:21:52.232Z,1.75
2023-02-11T01:23:58.013Z,1.77
2023-02-11T01:26:02.296Z,1.75
2023-02-11T01:28:05.424Z,1.76
2023-02-11T01:30:10.467Z,1.77
2023-02-11T01:32:13.165Z,1.70
2023-02-11T01:34:16.004Z,1.71
2023-02-11T01:36:18.920Z,1.77
2023-02-11T01:38:24.328Z,1.80
2023-02-11T01:40:28.804Z,1.78
2023-02-11T01:42:33.804Z,1.77
2023-02-11T01:44:39.977Z,1.78
2023-02-11T01:46:43.012Z,1.78
2023-02-11T01:48:50.312Z,1.77
2023-02-11T01:50:58.074Z,1.76
2023-02-11T01:53:21.839Z,1.76
2023-02-11T01:55:47.535Z,1.78
2023-02-11T01:57:56.216Z,1.77
2023-02-11T02:00:05.477Z,1.80
2023-02-11T02:02:22.783Z,1.77
2023-02-11T02:04:31.467Z,1.76
2023-02-11T02:06:36.859Z,1.74
2023-02-11T02:08:44.812Z,1.78
2023-02-11T02:10:49.548Z,1.79
2023-02-11T02:12:54.085Z,1.83
2023-02-11T02:15:28.459Z,1.87
2023-02-11T02:17:41.796Z,1.88
2023-02-11T02:20:12.468Z,1.85
2023-02-11T02:22:47.781Z,1.81
2023-02-11T02:25:17.123Z,1.82
2023-02-11T02:27:30.868Z,1.81
2023-02-11T02:29:54.366Z,1.81
2023-02-11T02:32:27.903Z,1.81
2023-02-11T02:34:38.631Z,1.79
2023-02-11T02:36:48.838Z,1.82
2023-02-11T02:38:54.991Z,1.84
2023-02-11T02:41:02.468Z,1.85
2023-02-11T02:43:06.033Z,1.84
2023-02-11T02:45:12.081Z,1.87
2023-02-11T02:47:14.852Z,1.80
2023-02-11T02:49:19.173Z,1.85
2023-02-11T02:51:47.659Z,1.87
2023-02-11T02:54:00.157Z,1.87
2023-02-11T02:56:10.588Z,1.91
2023-02-11T02:58:47.213Z,1.95
2023-02-11T03:00:59.252Z,1.85
2023-02-11T03:03:17.606Z,1.82
2023-02-11T03:05:27.777Z,1.82
2023-02-11T03:07:41.077Z,1.85
2023-02-11T03:09:49.392Z,1.81
2023-02-11T03:11:52.310Z,1.81
2023-02-11T03:13:56.288Z,1.81
2023-02-11T03:16:03.356Z,1.80
2023-02-11T03:18:08.519Z,1.81
2023-02-11T03:20:15.949Z,1.78
2023-02-11T03:22:23.676Z,1.79
2023-02-11T03:24:31.603Z,1.83
2023-02-11T03:26:38.936Z,1.78
2023-02-11T03:28:48.855Z,1.86
2023-02-11T03:30:58.300Z,1.90
2023-02-11T03:33:08.039Z,1.94
2023-02-11T03:35:16.490Z,1.86
2023-02-11T03:37:24.592Z,1.83
2023-02-11T03:39:34.268Z,1.83
2023-02-11T03:41:38.130Z,1.87
2023-02-11T03:43:45.080Z,1.83
2023-02-11T03:45:51.062Z,1.84
2023-02-11T03:47:58.681Z,1.84
2023-02-11T03:50:05.552Z,1.91
2023-02-11T03:52:11.291Z,1.84
2023-02-11T03:54:21.446Z,1.88
2023-02-11T03:56:28.286Z,1.86
2023-02-11T03:58:31.582Z,1.85
2023-02-11T04:00:37.785Z,1.91
2023-02-11T04:02:41.689Z,1.92
2023-02-11T04:04:45.068Z,1.91
2023-02-11T04:06:47.855Z,1.93
2023-02-11T04:08:50.664Z,1.92
2023-02-11T04:10:54.757Z,1.94
2023-02-11T04:12:57.647Z,1.88
2023-02-11T04:15:00.403Z,1.94
2023-02-11T04:17:03.680Z,2.01
2023-02-11T04:19:06.384Z,2.05
2023-02-11T04:21:09.245Z,1.99
2023-02-11T04:23:12.057Z,2.00
2023-02-11T04:25:14.878Z,2.05
2023-02-11T04:27:18.944Z,2.00
2023-02-11T04:29:21.797Z,1.97
2023-02-11T04:31:24.759Z,1.92
2023-02-11T04:33:27.701Z,1.95
2023-02-11T04:35:30.409Z,1.88
2023-02-11T04:37:33.401Z,1.87
2023-02-11T04:39:36.411Z,1.87
2023-02-11T04:41:39.159Z,1.87
2023-02-11T04:43:43.253Z,1.94
2023-02-11T04:45:46.065Z,1.87
2023-02-11T04:47:48.854Z,1.87
2023-02-11T04:49:51.798Z,1.90
2023-02-11T04:51:54.620Z,1.89
2023-02-11T04:53:57.391Z,1.88
2023-02-11T04:56:00.284Z,1.86
2023-02-11T04:58:03.007Z,1.95
2023-02-11T05:00:08.256Z,1.98
2023-02-11T05:02:11.047Z,1.89
2023-02-11T05:04:13.881Z,1.94
2023-02-11T05:06:16.743Z,1.89
2023-02-11T05:08:19.517Z,1.82
2023-02-11T05:10:22.321Z,1.86
2023-02-11T05:12:25.123Z,1.79
2023-02-11T05:14:27.989Z,1.78
2023-02-11T05:16:32.356Z,1.73
2023-02-11T05:18:35.096Z,1.72
2023-02-11T05:20:39.154Z,1.69
2023-02-11T05:22:41.994Z,1.65
2023-02-11T05:24:44.742Z,1.65
2023-02-11T05:26:47.591Z,1.64
2023-02-11T05:28:50.371Z,1.64
2023-02-11T05:30:53.198Z,1.61
2023-02-11T05:32:57.606Z,1.63
2023-02-11T05:35:00.427Z,1.59
2023-02-11T05:37:03.247Z,1.57
2023-02-11T05:39:06.055Z,1.57
2023-02-11T05:41:08.912Z,1.58
2023-02-11T05:43:11.658Z,1.58
2023-02-11T05:45:14.527Z,1.57
2023-02-11T05:47:17.278Z,1.63
2023-02-11T05:49:21.473Z,1.71
2023-02-11T05:51:25.214Z,1.71
2023-02-11T05:53:27.985Z,1.70
2023-02-11T05:55:30.871Z,1.67
2023-02-11T05:57:33.615Z,1.66
2023-02-11T05:59:36.352Z,1.64
2023-02-11T06:01:39.157Z,1.67
2023-02-11T06:03:42.047Z,1.63
2023-02-11T06:05:46.762Z,1.66
2023-02-11T06:07:49.596Z,1.64
2023-02-11T06:09:52.438Z,1.66
2023-02-11T06:11:55.243Z,1.70
2023-02-11T06:13:58.016Z,1.76
2023-02-11T06:16:02.660Z,1.73
2023-02-11T06:18:06.230Z,1.74
2023-02-11T06:20:10.697Z,1.76
2023-02-11T06:22:14.857Z,1.73
2023-02-11T06:24:33.095Z,1.70
2023-02-11T06:26:40.450Z,1.74
2023-02-11T06:28:43.257Z,1.70
2023-02-11T06:30:46.381Z,1.72
2023-02-11T06:32:49.344Z,1.76
2023-02-11T06:34:52.201Z,1.71
2023-02-11T06:36:54.991Z,1.73
2023-02-11T06:38:59.181Z,1.76
2023-02-11T06:41:01.923Z,1.72
2023-02-11T06:43:04.656Z,1.76
2023-02-11T06:45:09.320Z,1.72
2023-02-11T06:47:12.195Z,1.77
2023-02-11T06:49:15.384Z,1.79
2023-02-11T06:51:18.437Z,1.73
2023-02-11T06:53:21.373Z,1.64
2023-02-11T06:55:25.489Z,1.63
2023-02-11T06:57:28.208Z,1.61
2023-02-11T06:59:30.969Z,1.57
2023-02-11T07:01:33.929Z,1.63
2023-02-11T07:03:38.507Z,1.64
2023-02-11T07:05:43.450Z,1.64
2023-02-11T07:07:46.073Z,1.53
2023-02-11T07:09:48.905Z,1.58
2023-02-11T07:11:53.138Z,1.63
2023-02-11T07:13:57.915Z,1.65
2023-02-11T07:16:00.732Z,1.58
2023-02-11T07:18:04.095Z,1.68
2023-02-11T07:20:07.659Z,1.67
2023-02-11T07:22:10.450Z,1.63
2023-02-11T07:24:14.275Z,1.67
2023-02-11T07:26:18.492Z,1.67
2023-02-11T07:28:22.654Z,1.67
2023-02-11T07:30:25.488Z,1.71
2023-02-11T07:32:28.311Z,1.82
2023-02-11T07:34:31.120Z,1.71
2023-02-11T07:36:34.140Z,1.71
2023-02-11T07:38:37.837Z,1.78
2023-02-11T07:40:40.746Z,1.80
2023-02-11T07:42:43.557Z,1.74
2023-02-11T07:44:50.343Z,1.76
2023-02-11T07:46:53.377Z,1.78
2023-02-11T07:48:56.568Z,1.88
2023-02-11T07:51:06.794Z,1.87
2023-02-11T07:53:09.512Z,1.87
2023-02-11T07:55:12.463Z,1.91
2023-02-11T07:57:15.319Z,1.98
2023-02-11T07:59:18.055Z,1.97
2023-02-11T08:01:25.426Z,2.03
2023-02-11T08:03:28.468Z,2.11
2023-02-11T08:05:31.416Z,2.08
2023-02-11T08:07:34.273Z,2.09
2023-02-11T08:09:36.982Z,2.15
2023-02-11T08:11:39.875Z,2.26
2023-02-11T08:13:43.465Z,2.24
2023-02-11T08:15:46.264Z,2.21
2023-02-11T08:17:50.471Z,2.23
2023-02-11T08:19:53.274Z,2.24
2023-02-11T08:21:56.912Z,2.30
2023-02-11T08:23:59.756Z,2.31
2023-02-11T08:26:03.397Z,2.48
2023-02-11T08:28:06.248Z,2.44
2023-02-11T08:30:10.180Z,2.47
2023-02-11T08:32:12.996Z,2.53
2023-02-11T08:34:19.237Z,2.55
2023-02-11T08:36:24.275Z,2.62
2023-02-11T08:38:27.127Z,2.80
2023-02-11T08:40:29.954Z,2.75
2023-02-11T08:42:32.707Z,2.81
2023-02-11T08:44:35.491Z,2.84
2023-02-11T08:46:38.229Z,2.88
2023-02-11T08:48:41.059Z,2.91
2023-02-11T08:50:45.181Z,2.97
2023-02-11T08:52:47.962Z,3.00
2023-02-11T08:54:50.816Z,3.01
2023-02-11T08:56:53.706Z,3.07
2023-02-11T08:58:56.538Z,3.05
2023-02-11T09:00:59.820Z,3.07
2023-02-11T09:03:02.816Z,3.16
2023-02-11T09:05:05.967Z,3.17
2023-02-11T09:07:10.172Z,3.18
2023-02-11T09:09:14.861Z,3.21
2023-02-11T09:11:18.955Z,3.26
2023-02-11T09:13:21.694Z,3.30
2023-02-11T09:15:24.594Z,3.33
2023-02-11T09:17:33.932Z,3.44
2023-02-11T09:19:36.866Z,3.49
2023-02-11T09:21:39.851Z,3.54
2023-02-11T09:23:44.814Z,3.60
2023-02-11T09:25:47.425Z,3.60
2023-02-11T09:27:51.346Z,3.63
2023-02-11T09:29:54.106Z,3.72
2023-02-11T09:31:57.014Z,3.87
2023-02-11T09:34:01.956Z,3.93
2023-02-11T09:36:06.144Z,4.04
2023-02-11T09:38:08.887Z,4.14
2023-02-11T09:40:13.944Z,4.27
2023-02-11T09:42:38.534Z,4.27
2023-02-11T09:44:41.645Z,4.39
2023-02-11T09:46:47.880Z,4.48
2023-02-11T09:48:53.444Z,4.61
2023-02-11T09:50:59.724Z,4.79
2023-02-11T09:53:05.663Z,4.80
2023-02-11T09:55:19.764Z,4.82
2023-02-11T09:57:28.805Z,4.88
2023-02-11T09:59:32.066Z,5.01
2023-02-11T10:01:42.839Z,5.06
2023-02-11T10:04:06.470Z,5.21
2023-02-11T10:06:30.659Z,5.28
2023-02-11T10:08:42.543Z,5.25
2023-02-11T10:10:53.159Z,5.23
2023-02-11T10:13:16.078Z,5.27
2023-02-11T10:15:37.551Z,5.37
2023-02-11T10:17:51.272Z,5.41
2023-02-11T10:20:06.818Z,5.51
2023-02-11T10:22:19.241Z,5.48
2023-02-11T10:24:23.170Z,5.63
2023-02-11T10:26:32.335Z,5.69
2023-02-11T10:28:35.799Z,5.72
2023-02-11T10:30:42.550Z,5.69
2023-02-11T10:32:49.576Z,5.73
2023-02-11T10:34:56.984Z,5.79
2023-02-11T10:37:00.325Z,5.86
2023-02-11T10:39:03.559Z,5.93
2023-02-11T10:41:06.505Z,5.91
2023-02-11T10:43:14.664Z,5.88
2023-02-11T10:45:23.582Z,5.85
2023-02-11T10:47:29.589Z,5.99
2023-02-11T10:49:38.392Z,6.05
2023-02-11T10:51:41.219Z,5.98
2023-02-11T10:53:44.871Z,5.92
2023-02-11T10:55:53.458Z,5.92
2023-02-11T10:57:59.613Z,5.96
2023-02-11T11:00:09.457Z,6.06
2023-02-11T11:02:24.523Z,6.15
2023-02-11T11:04:41.696Z,6.32
2023-02-11T11:06:44.593Z,6.40
2023-02-11T11:08:49.084Z,6.49
2023-02-11T11:11:04.883Z,6.57
2023-02-11T11:13:25.490Z,6.80
2023-02-11T11:15:31.567Z,6.80
2023-02-11T11:17:34.515Z,6.82
2023-02-11T11:19:39.159Z,6.89
2023-02-11T11:21:44.357Z,6.92
2023-02-11T11:23:53.793Z,6.98
2023-02-11T11:26:05.095Z,7.00
2023-02-11T11:28:19.885Z,7.12
2023-02-11T11:30:26.714Z,7.15
2023-02-11T11:32:33.289Z,7.19
2023-02-11T11:34:39.759Z,7.18
2023-02-11T11:36:42.636Z,7.17
2023-02-11T11:38:50.134Z,7.14
2023-02-11T11:41:14.557Z,7.16
2023-02-11T11:43:23.035Z,7.30
2023-02-11T11:45:27.590Z,7.38
2023-02-11T11:47:37.000Z,7.34
2023-02-11T11:49:44.951Z,7.46
2023-02-11T11:51:56.020Z,7.38
2023-02-11T11:54:02.334Z,7.31
2023-02-11T11:56:07.882Z,7.30
2023-02-11T11:58:16.380Z,7.52
2023-02-11T12:00:22.676Z,7.58
2023-02-11T12:02:51.946Z,7.66
2023-02-11T12:05:02.600Z,7.71
2023-02-11T12:07:18.801Z,7.60
2023-02-11T12:09:29.828Z,7.40
2023-02-11T12:11:42.730Z,7.27
2023-02-11T12:13:57.905Z,7.31
2023-02-11T12:16:11.310Z,7.42
2023-02-11T12:18:32.806Z,7.49
2023-02-11T12:20:44.530Z,7.54
2023-02-11T12:23:02.080Z,7.70
2023-02-11T12:25:27.236Z,7.96
2023-02-11T12:27:48.904Z,7.86
2023-02-11T12:30:04.308Z,7.56
2023-02-11T12:32:15.880Z,7.54
2023-02-11T12:34:42.899Z,7.46
2023-02-11T12:37:02.817Z,7.44
2023-02-11T12:39:18.806Z,7.51
2023-02-11T12:41:53.324Z,7.62
2023-02-11T12:43:56.193Z,7.58
2023-02-11T12:46:23.947Z,7.64
2023-02-11T12:48:46.413Z,7.75
2023-02-11T12:50:59.219Z,7.72
2023-02-11T12:53:21.346Z,7.93
2023-02-11T12:55:26.807Z,8.07
2023-02-11T12:57:33.292Z,7.97
2023-02-11T12:59:48.736Z,7.99
2023-02-11T13:01:52.910Z,7.89
2023-02-11T13:04:02.000Z,7.74
2023-02-11T13:06:09.343Z,7.76
2023-02-11T13:08:16.948Z,7.77
2023-02-11T13:10:30.935Z,7.88
2023-02-11T13:12:56.134Z,8.11
2023-02-11T13:15:04.070Z,7.99
2023-02-11T13:17:18.764Z,7.85
2023-02-11T13:19:27.785Z,7.93
2023-02-11T13:21:42.000Z,8.06
2023-02-11T13:23:51.089Z,8.16
2023-02-11T13:26:00.431Z,8.12
2023-02-11T13:28:23.698Z,8.09
2023-02-11T13:30:32.412Z,8.14
2023-02-11T13:33:06.517Z,8.09
2023-02-11T13:35:29.268Z,8.04
2023-02-11T13:37:38.100Z,8.10
2023-02-11T13:39:40.927Z,8.08
2023-02-11T13:41:45.099Z,7.90
2023-02-11T13:43:59.832Z,8.10
2023-02-11T13:46:04.510Z,7.99
2023-02-11T13:48:09.948Z,7.81
2023-02-11T13:50:24.801Z,7.97
2023-02-11T13:52:30.607Z,7.79
2023-02-11T13:54:39.018Z,7.75
2023-02-11T13:56:44.037Z,7.78
2023-02-11T13:58:48.910Z,7.66
2023-02-11T14:00:52.660Z,7.57
2023-02-11T14:03:41.687Z,7.57
2023-02-11T14:06:30.327Z,7.56
2023-02-11T14:08:50.503Z,7.57
2023-02-11T14:10:56.762Z,7.58
2023-02-11T14:13:22.939Z,7.62
2023-02-11T14:15:28.726Z,7.71
2023-02-11T14:17:33.861Z,7.93
2023-02-11T14:19:38.460Z,7.84
2023-02-11T14:21:44.061Z,7.72
2023-02-11T14:23:48.341Z,7.64
2023-02-11T14:26:26.797Z,7.64
2023-02-11T14:28:34.170Z,7.62
2023-02-11T14:30:47.411Z,7.62
2023-02-11T14:33:07.174Z,7.61
2023-02-11T14:35:18.241Z,7.56
2023-02-11T14:37:33.926Z,7.49
2023-02-11T14:39:56.941Z,7.52
2023-02-11T14:42:03.515Z,7.52
2023-02-11T14:44:14.065Z,7.50
2023-02-11T14:46:18.703Z,7.46
2023-02-11T14:48:28.335Z,7.49
2023-02-11T14:50:38.739Z,7.48
2023-02-11T14:52:44.164Z,7.45
2023-02-11T14:54:49.584Z,7.42
2023-02-11T14:57:11.109Z,7.46
2023-02-11T14:59:18.830Z,7.45
2023-02-11T15:01:29.040Z,7.45
2023-02-11T15:03:34.879Z,7.45
2023-02-11T15:05:37.867Z,7.50
2023-02-11T15:07:45.393Z,7.63
2023-02-11T15:09:51.163Z,7.69
2023-02-11T15:11:55.116Z,7.78
2023-02-11T15:14:02.744Z,7.80
2023-02-11T15:16:09.161Z,7.85
2023-02-11T15:18:22.630Z,7.82
2023-02-11T15:20:28.266Z,7.78
2023-02-11T15:22:36.775Z,7.74
2023-02-11T15:24:40.439Z,7.72
2023-02-11T15:26:43.264Z,7.73
2023-02-11T15:28:52.034Z,7.79
2023-02-11T15:31:01.684Z,7.72
2023-02-11T15:33:06.812Z,7.67
2023-02-11T15:35:13.594Z,7.68
2023-02-11T15:37:21.831Z,7.64
2023-02-11T15:39:32.452Z,7.70
2023-02-11T15:41:37.664Z,7.71
2023-02-11T15:43:45.530Z,7.72
2023-02-11T15:45:57.931Z,7.74
2023-02-11T15:48:09.109Z,7.78
2023-02-11T15:50:21.877Z,7.80
2023-02-11T15:52:27.406Z,7.80
2023-02-11T15:54:32.069Z,7.78
2023-02-11T15:56:43.254Z,7.76
2023-02-11T15:58:48.790Z,7.77
2023-02-11T16:00:59.544Z,7.78
2023-02-11T16:03:04.208Z,7.73
2023-02-11T16:05:10.345Z,7.71
2023-02-11T16:07:39.630Z,7.73
2023-02-11T16:09:43.815Z,7.71
2023-02-11T16:11:57.982Z,7.75
2023-02-11T16:14:04.570Z,7.74
2023-02-11T16:16:20.682Z,7.73
2023-02-11T16:18:39.377Z,7.71
2023-02-11T16:20:48.262Z,7.69
2023-02-11T16:22:51.271Z,7.68
2023-02-11T16:24:58.010Z,7.67
2023-02-11T16:27:02.658Z,7.66
2023-02-11T16:29:13.176Z,7.68
2023-02-11T16:31:16.287Z,7.67
2023-02-11T16:33:19.113Z,7.68
2023-02-11T16:35:23.343Z,7.69
2023-02-11T16:37:26.619Z,7.69
2023-02-11T16:39:29.434Z,7.68
2023-02-11T16:41:32.259Z,7.65
2023-02-11T16:43:35.076Z,7.63
2023-02-11T16:45:38.634Z,7.63
2023-02-11T16:47:42.421Z,7.66
2023-02-11T16:49:45.365Z,7.65
2023-02-11T16:51:52.728Z,7.64
2023-02-11T16:53:55.598Z,7.62
2023-02-11T16:55:58.329Z,7.61
2023-02-11T16:58:01.067Z,7.63
2023-02-11T17:00:06.302Z,7.63
2023-02-11T17:02:13.874Z,7.62
2023-02-11T17:04:20.187Z,7.62
2023-02-11T17:06:22.981Z,7.58
2023-02-11T17:08:27.269Z,7.55
2023-02-11T17:10:30.774Z,7.53
2023-02-11T17:12:33.580Z,7.53
2023-02-11T17:14:36.373Z,7.54
2023-02-11T17:16:39.292Z,7.57
2023-02-11T17:18:42.120Z,7.60
2023-02-11T17:20:44.949Z,7.60
2023-02-11T17:22:47.772Z,7.57
2023-02-11T17:24:51.930Z,7.62
2023-02-11T17:26:54.863Z,7.58
2023-02-11T17:28:57.652Z,7.60
2023-02-11T17:31:00.917Z,7.60
2023-02-11T17:33:03.924Z,7.57
2023-02-11T17:35:07.527Z,7.58
2023-02-11T17:37:10.304Z,7.54
2023-02-11T17:39:13.659Z,7.51
2023-02-11T17:41:17.844Z,7.53
2023-02-11T17:43:20.662Z,7.50
2023-02-11T17:45:23.602Z,7.47
2023-02-11T17:47:26.506Z,7.47
2023-02-11T17:49:29.279Z,7.48
2023-02-11T17:51:34.000Z,7.50
2023-02-11T17:53:36.799Z,7.53
2023-02-11T17:55:39.525Z,7.49
2023-02-11T17:57:44.209Z,7.50
2023-02-11T17:59:47.177Z,7.48
2023-02-11T18:01:50.072Z,7.47
2023-02-11T18:03:52.928Z,7.45
2023-02-11T18:06:00.738Z,7.48
2023-02-11T18:08:04.106Z,7.50
2023-02-11T18:10:08.071Z,7.53
2023-02-11T18:12:11.930Z,7.51
2023-02-11T18:14:16.118Z,7.51
2023-02-11T18:16:19.055Z,7.51
2023-02-11T18:18:21.996Z,7.53
2023-02-11T18:20:24.805Z,7.55
2023-02-11T18:22:27.936Z,7.55
2023-02-11T18:24:31.055Z,7.53
2023-02-11T18:26:33.900Z,7.47
2023-02-11T18:28:36.831Z,7.45
2023-02-11T18:30:41.179Z,7.43
2023-02-11T18:32:44.538Z,7.45
2023-02-11T18:34:47.354Z,7.44
2023-02-11T18:36:50.344Z,7.45
2023-02-11T18:38:54.189Z,7.46
2023-02-11T18:40:58.562Z,7.42
2023-02-11T18:43:01.313Z,7.45
2023-02-11T18:45:05.164Z,7.44
2023-02-11T18:47:09.314Z,7.46
2023-02-11T18:49:13.143Z,7.47
2023-02-11T18:51:18.634Z,7.46
2023-02-11T18:53:21.842Z,7.47
2023-02-11T18:55:25.882Z,7.45
2023-02-11T18:57:28.705Z,7.53
2023-02-11T18:59:31.655Z,7.46
2023-02-11T19:01:34.666Z,7.43
2023-02-11T19:03:38.880Z,7.41
2023-02-11T19:05:42.658Z,7.38
2023-02-11T19:07:45.481Z,7.31
2023-02-11T19:09:48.233Z,7.25
2023-02-11T19:11:51.173Z,7.23
2023-02-11T19:13:53.944Z,7.25
2023-02-11T19:15:56.685Z,7.25
2023-02-11T19:17:59.513Z,7.24
2023-02-11T19:20:05.961Z,7.27
2023-02-11T19:22:10.785Z,7.31
2023-02-11T19:24:15.450Z,7.25
2023-02-11T19:26:18.220Z,7.25
2023-02-11T19:28:22.068Z,7.28
2023-02-11T19:30:24.901Z,7.32
2023-02-11T19:32:28.052Z,7.36
2023-02-11T19:34:30.962Z,7.39
2023-02-11T19:36:35.447Z,7.40
2023-02-11T19:38:39.128Z,7.39
2023-02-11T19:40:41.936Z,7.36
2023-02-11T19:42:44.844Z,7.37
2023-02-11T19:44:47.659Z,7.37
2023-02-11T19:46:52.779Z,7.33
2023-02-11T19:48:55.844Z,7.33
2023-02-11T19:50:58.700Z,7.33
2023-02-11T19:53:03.046Z,7.31
2023-02-11T19:55:06.474Z,7.28
2023-02-11T19:57:09.247Z,7.25
2023-02-11T19:59:12.453Z,7.27
2023-02-11T20:01:17.656Z,7.26
2023-02-11T20:03:20.589Z,7.25
2023-02-11T20:05:23.556Z,7.25
2023-02-11T20:07:26.351Z,7.27
2023-02-11T20:09:31.157Z,7.25
2023-02-11T20:11:34.548Z,7.23
2023-02-11T20:13:38.472Z,7.21
2023-02-11T20:15:41.285Z,7.22
2023-02-11T20:17:45.355Z,7.22
2023-02-11T20:19:48.156Z,7.19
2023-02-11T20:21:53.565Z,7.19
2023-02-11T20:23:56.405Z,7.19
2023-02-11T20:26:05.279Z,7.22
2023-02-11T20:28:08.021Z,7.23
2023-02-11T20:30:11.621Z,7.26
2023-02-11T20:32:15.638Z,7.26
2023-02-11T20:34:18.870Z,7.21
2023-02-11T20:36:23.900Z,7.21
2023-02-11T20:38:27.587Z,7.19
2023-02-11T20:40:30.374Z,7.19
2023-02-11T20:42:34.499Z,7.23
2023-02-11T20:44:37.628Z,7.20
2023-02-11T20:46:42.426Z,7.22
2023-02-11T20:48:45.204Z,7.15
2023-02-11T20:50:48.417Z,7.13
2023-02-11T20:52:51.275Z,7.16
2023-02-11T20:54:54.071Z,7.18
2023-02-11T20:56:58.128Z,7.18
2023-02-11T20:59:03.806Z,7.22
2023-02-11T21:01:10.384Z,7.25
2023-02-11T21:03:13.279Z,7.25
2023-02-11T21:05:16.049Z,7.25
2023-02-11T21:07:19.364Z,7.25
2023-02-11T21:09:23.909Z,7.25
2023-02-11T21:11:26.807Z,7.24
2023-02-11T21:13:29.650Z,7.22
2023-02-11T21:15:33.763Z,7.23
2023-02-11T21:17:36.601Z,7.20
2023-02-11T21:19:39.481Z,7.21
2023-02-11T21:21:42.510Z,7.19
2023-02-11T21:23:45.338Z,7.18
2023-02-11T21:25:48.471Z,7.16
2023-02-11T21:27:51.277Z,7.12
2023-02-11T21:29:54.919Z,7.13
2023-02-11T21:31:59.102Z,7.12
2023-02-11T21:34:01.913Z,7.10
2023-02-11T21:36:07.689Z,7.10
2023-02-11T21:38:10.493Z,7.14
2023-02-11T21:40:14.847Z,7.14
2023-02-11T21:42:17.665Z,7.12
2023-02-11T21:44:20.476Z,7.12
2023-02-11T21:46:23.633Z,7.13
2023-02-11T21:48:28.307Z,7.13
2023-02-11T21:50:31.093Z,7.13
2023-02-11T21:52:33.895Z,7.15
2023-02-11T21:54:36.726Z,7.16
2023-02-11T21:56:40.541Z,7.17
2023-02-11T21:58:43.969Z,7.17
2023-02-11T22:00:46.783Z,7.18
2023-02-11T22:02:49.929Z,7.16
2023-02-11T22:04:54.145Z,7.16
2023-02-11T22:06:56.963Z,7.14
2023-02-11T22:09:03.026Z,7.15
2023-02-11T22:11:07.064Z,7.13
2023-02-11T22:13:09.868Z,7.12
2023-02-11T22:15:12.965Z,7.12
2023-02-11T22:17:15.782Z,7.11
2023-02-11T22:19:18.907Z,7.11
2023-02-11T22:21:23.926Z,7.11
2023-02-11T22:23:26.831Z,7.09
2023-02-11T22:25:29.620Z,7.08
2023-02-11T22:27:32.465Z,7.07
2023-02-11T22:29:35.311Z,7.05
2023-02-11T22:31:38.271Z,7.06
2023-02-11T22:33:41.729Z,7.04
2023-02-11T22:35:44.517Z,7.01
2023-02-11T22:37:48.673Z,7.02
2023-02-11T22:39:51.441Z,7.03
2023-02-11T22:41:56.428Z,7.07
2023-02-11T22:43:59.487Z,7.08
2023-02-11T22:46:03.308Z,7.05
2023-02-11T22:48:06.636Z,6.99
2023-02-11T22:50:09.995Z,6.99
2023-02-11T22:52:12.943Z,7.02
2023-02-11T22:54:18.421Z,7.05
2023-02-11T22:56:22.053Z,7.07
2023-02-11T22:58:25.681Z,7.06
2023-02-11T23:00:32.455Z,7.08
2023-02-11T23:02:35.294Z,7.05
2023-02-11T23:04:38.127Z,7.05
2023-02-11T23:06:41.086Z,7.04
2023-02-11T23:08:44.453Z,7.01
2023-02-11T23:10:49.220Z,6.99
2023-02-11T23:12:51.939Z,6.93
2023-02-11T23:14:54.724Z,6.92
2023-02-11T23:16:57.530Z,6.95
2023-02-11T23:19:01.507Z,6.98
2023-02-11T23:21:06.626Z,6.99
2023-02-11T23:23:09.619Z,7.01
2023-02-11T23:25:12.417Z,7.01
2023-02-11T23:27:16.572Z,7.00
2023-02-11T23:29:19.380Z,6.98
2023-02-11T23:31:24.379Z,7.01
2023-02-11T23:33:27.311Z,6.99
2023-02-11T23:35:30.155Z,6.98
2023-02-11T23:37:32.908Z,6.96
2023-02-11T23:39:35.953Z,6.97
2023-02-11T23:41:38.707Z,6.96
2023-02-11T23:43:42.848Z,6.97
2023-02-11T23:45:45.588Z,6.97
2023-02-11T23:47:48.510Z,6.99
2023-02-11T23:49:51.324Z,7.04
2023-02-11T23:51:54.126Z,7.05
2023-02-11T23:53:57.051Z,7.05
2023-02-11T23:55:59.846Z,7.04
2023-02-11T23:58:02.751Z,7.04
